Chatfield, TX (75105)

9:17 AM CDT on March 24, 2017 (GMT -0500)
Lively/Styx | | Change Station

Elev 410 ft 32.38 °N, 96.31 °W | Updated 33 seconds ago

Mostly Cloudy
Mostly Cloudy
68.4 °F
Feels Like 68.4 °F
N
2.2
Wind Variable Wind from SSW

Today
High -- | Low -- °F
--% Chance of Precip.
Yesterday
High -- | Low -- °F
Precip. -- in
Pressure 29.94 in
Visibility 10.0 miles
Clouds Few 10000 ft
Dew Point 62 °F
Humidity 79%
Rainfall 0.00 in
Snow Depth Not available.
7:23 AM 7:40 PM
Waning Crescent, 15% visible
METAR KCRS 241353Z AUTO 16017G26KT 10SM FEW100 21/17 A2995 RMK AO2 PK WND 15026/1350 SLP138 T02060167
Pressure 29.94 in
Visibility 10.0 miles
Clouds Few 10000 ft
Dew Point 62 °F
Humidity 79%
Rainfall 0.00 in
Snow Depth Not available.
7:23 AM 7:40 PM
Waning Crescent, 15% visible
METAR KCRS 241353Z AUTO 16017G26KT 10SM FEW100 21/17 A2995 RMK AO2 PK WND 15026/1350 SLP138 T02060167

Get Severe Weather Alerts

Thanks for signing up!

Be on the lookout for a verification email in your inbox.

You'll start receiving the daily forecast at 8 AM.

×

10-Day Weather Forecast

Almanac

Astronomy

Mar. 24, 2017 Rise Set
Actual Time
Civil Twilight
Nautical Twilight
Astronomical Twilight
Moon
Length of Visible Light
Length of Day
Tomorrow will be .
, % of the Moon is Illuminated

Today's Extremes

State Highs State Lows

Community

WunderPhotos

Upload Photos

1,962,540 photos uploaded!

WunderBlog® & News

Nearby

Air Quality

  Air Quality AQ Index Pollutant
Not available.

Snow Depth

Station Depth Elevation

Earthquake Activity

City Distance Mag. Time & Date
Minimum magnitude displayed is 2.5.

Earthquake Activity

City Distance Mag. Time & Date
Minimum magnitude displayed is 2.5.

Coastal Water Temperatures

Place Temperature

Stations

Nearby Weather Stations

Station Location Temp. Windchill Dew Point Humidity Wind Precip. Elev Updated Type
                   

Watches & Warnings

There are currently no watches in effect.